createdAt,value
2022-10-24T00:01:47.926Z,99193.97
2022-10-24T00:04:37.435Z,99199.13
2022-10-24T00:07:22.024Z,99201.16
2022-10-24T00:10:07.830Z,99197.53
2022-10-24T00:12:55.929Z,99210.91
2022-10-24T00:15:45.755Z,99205.41
2022-10-24T00:18:30.458Z,99202.94
2022-10-24T00:21:15.578Z,99207.25
2022-10-24T00:24:00.627Z,99208.69
2022-10-24T00:26:45.530Z,99206.00
2022-10-24T00:29:30.509Z,99207.69
2022-10-24T00:32:15.570Z,99209.94
2022-10-24T00:35:00.607Z,99211.63
2022-10-24T00:37:45.921Z,99212.25
2022-10-24T00:40:31.155Z,99205.56
2022-10-24T00:43:22.539Z,99206.78
2022-10-24T00:46:07.862Z,99198.94
2022-10-24T00:48:54.319Z,99205.88
2022-10-24T00:51:39.045Z,99201.41
2022-10-24T00:54:24.399Z,99206.56
2022-10-24T00:57:18.090Z,99212.38
2022-10-24T01:00:10.875Z,99210.00
2022-10-24T01:02:56.883Z,99199.91
2022-10-24T01:06:19.756Z,99205.84
2022-10-24T01:09:39.290Z,99199.69
2022-10-24T01:12:41.935Z,99200.31
2022-10-24T01:15:40.918Z,99204.00
2022-10-24T01:19:04.278Z,99198.72
2022-10-24T01:21:55.898Z,99209.31
2022-10-24T01:25:07.232Z,99206.19
2022-10-24T01:28:12.858Z,99206.53
2022-10-24T01:31:50.620Z,99211.22
2022-10-24T01:34:47.252Z,99202.38
2022-10-24T01:37:42.806Z,99200.69
2022-10-24T01:40:37.804Z,99191.50
2022-10-24T01:43:29.942Z,99192.16
2022-10-24T01:46:20.560Z,99192.88
2022-10-24T01:49:11.855Z,99191.19
2022-10-24T01:52:00.640Z,99196.78
2022-10-24T01:54:48.345Z,99197.19
2022-10-24T01:57:34.802Z,99199.63
2022-10-24T02:00:46.508Z,99203.56
2022-10-24T02:03:53.363Z,99201.41
2022-10-24T02:06:41.304Z,99195.41
2022-10-24T02:09:26.495Z,99202.34
2022-10-24T02:12:16.070Z,99198.84
2022-10-24T02:15:07.679Z,99206.28
2022-10-24T02:17:54.503Z,99201.06
2022-10-24T02:20:53.703Z,99196.44
2022-10-24T02:23:51.149Z,99201.22
2022-10-24T02:26:59.095Z,99202.66
2022-10-24T02:30:05.528Z,99207.97
2022-10-24T02:32:54.546Z,99209.19
2022-10-24T02:35:40.941Z,99217.13
2022-10-24T02:38:31.705Z,99216.56
2022-10-24T02:41:22.131Z,99218.63
2022-10-24T02:44:08.437Z,99214.19
2022-10-24T02:46:56.548Z,99231.16
2022-10-24T02:49:45.071Z,99225.59
2022-10-24T02:52:30.021Z,99223.41
2022-10-24T02:55:14.843Z,99217.13
2022-10-24T02:58:00.005Z,99223.03
2022-10-24T03:00:45.033Z,99224.03
2022-10-24T03:03:29.851Z,99213.59
2022-10-24T03:06:14.827Z,99235.34
2022-10-24T03:08:59.773Z,99234.59
2022-10-24T03:11:44.795Z,99235.97
2022-10-24T03:14:30.290Z,99234.63
2022-10-24T03:17:15.367Z,99237.19
2022-10-24T03:20:00.208Z,99237.41
2022-10-24T03:22:45.253Z,99242.88
2022-10-24T03:25:30.263Z,99229.72
2022-10-24T03:28:15.283Z,99225.16
2022-10-24T03:31:00.222Z,99229.88
2022-10-24T03:33:45.268Z,99228.50
2022-10-24T03:36:30.281Z,99225.97
2022-10-24T03:39:15.163Z,99222.69
2022-10-24T03:42:00.183Z,99215.66
2022-10-24T03:44:45.242Z,99215.09
2022-10-24T03:47:30.115Z,99219.84
2022-10-24T03:50:15.158Z,99219.50
2022-10-24T03:53:00.356Z,99215.00
2022-10-24T03:55:45.003Z,99214.47
2022-10-24T03:58:29.950Z,99215.34
2022-10-24T04:01:17.627Z,99212.81
2022-10-24T04:04:03.086Z,99218.28
2022-10-24T04:06:47.744Z,99216.47
2022-10-24T04:09:32.673Z,99210.31
2022-10-24T04:12:17.612Z,99213.09
2022-10-24T04:15:04.961Z,99207.34
2022-10-24T04:17:50.210Z,99212.03
2022-10-24T04:20:35.562Z,99206.22
2022-10-24T04:23:20.638Z,99209.97
2022-10-24T04:26:05.916Z,99215.41
2022-10-24T04:28:50.704Z,99216.19
2022-10-24T04:31:35.515Z,99226.06
2022-10-24T04:34:20.485Z,99225.03
2022-10-24T04:37:05.558Z,99235.00
2022-10-24T04:39:50.550Z,99227.53
2022-10-24T04:42:35.414Z,99227.22
2022-10-24T04:45:20.494Z,99231.25
2022-10-24T04:48:05.794Z,99225.81
2022-10-24T04:50:51.098Z,99230.25
2022-10-24T04:53:36.222Z,99242.81
2022-10-24T04:56:22.222Z,99245.31
2022-10-24T04:59:07.252Z,99249.41
2022-10-24T05:01:54.392Z,99251.88
2022-10-24T05:04:39.132Z,99251.59
2022-10-24T05:07:24.191Z,99259.44
2022-10-24T05:10:09.436Z,99254.66
2022-10-24T05:12:55.010Z,99260.13
2022-10-24T05:15:40.123Z,99254.56
2022-10-24T05:18:25.646Z,99260.44
2022-10-24T05:21:11.245Z,99257.97
2022-10-24T05:23:56.173Z,99261.13
2022-10-24T05:26:41.234Z,99263.81
2022-10-24T05:29:26.763Z,99255.25
2022-10-24T05:32:11.783Z,99259.63
2022-10-24T05:35:03.893Z,99253.47
2022-10-24T05:38:14.294Z,99254.41
2022-10-24T05:40:59.891Z,99256.09
2022-10-24T05:43:45.042Z,99255.63
2022-10-24T05:46:29.997Z,99261.06
2022-10-24T05:49:20.228Z,99260.69
2022-10-24T05:52:13.291Z,99272.09
2022-10-24T05:55:16.927Z,99270.44
2022-10-24T05:58:03.522Z,99270.63
2022-10-24T06:00:53.605Z,99277.63
2022-10-24T06:03:40.115Z,99284.34
2022-10-24T06:06:28.831Z,99280.31
2022-10-24T06:09:13.786Z,99285.50
2022-10-24T06:12:02.628Z,99280.91
2022-10-24T06:14:59.407Z,99287.28
2022-10-24T06:17:44.713Z,99286.94
2022-10-24T06:20:30.467Z,99280.94
2022-10-24T06:23:17.395Z,99285.78
2022-10-24T06:26:24.233Z,99302.00
2022-10-24T06:29:13.854Z,99283.97
2022-10-24T06:32:30.794Z,99300.53
2022-10-24T06:35:16.045Z,99290.69
2022-10-24T06:38:01.112Z,99297.41
2022-10-24T06:40:46.869Z,99295.25
2022-10-24T06:43:39.878Z,99292.81
2022-10-24T06:46:28.175Z,99286.16
2022-10-24T06:49:27.638Z,99298.03
2022-10-24T06:52:44.718Z,99291.38
2022-10-24T06:55:30.728Z,99291.28
2022-10-24T06:58:15.366Z,99288.16
2022-10-24T07:01:11.653Z,99289.41
2022-10-24T07:03:56.806Z,99286.81
2022-10-24T07:06:46.501Z,99288.59
2022-10-24T07:09:31.667Z,99292.97
2022-10-24T07:12:17.481Z,99287.38
2022-10-24T07:15:04.041Z,99282.41
2022-10-24T07:18:18.694Z,99290.53
2022-10-24T07:21:22.479Z,99292.34
2022-10-24T07:24:08.144Z,99280.69
2022-10-24T07:27:04.088Z,99294.25
2022-10-24T07:29:51.059Z,99279.00
2022-10-24T07:32:44.591Z,99292.78
2022-10-24T07:35:30.089Z,99291.38
2022-10-24T07:38:17.888Z,99290.81
2022-10-24T07:41:06.716Z,99297.28
2022-10-24T07:43:54.382Z,99284.06
2022-10-24T07:46:42.724Z,99288.63
2022-10-24T07:49:30.229Z,99284.84
2022-10-24T07:52:22.233Z,99283.50
2022-10-24T07:55:08.319Z,99272.25
2022-10-24T07:57:53.398Z,99270.28
2022-10-24T08:00:42.642Z,99272.03
2022-10-24T08:03:30.277Z,99271.03
2022-10-24T08:06:18.004Z,99268.00
2022-10-24T08:09:03.529Z,99273.81
2022-10-24T08:11:48.829Z,99274.28
2022-10-24T08:14:34.204Z,99274.13
2022-10-24T08:17:21.440Z,99282.13
2022-10-24T08:20:30.299Z,99280.25
2022-10-24T08:23:21.926Z,99280.72
2022-10-24T08:26:12.552Z,99272.09
2022-10-24T08:28:57.849Z,99266.34
2022-10-24T08:31:43.167Z,99271.00
2022-10-24T08:34:29.045Z,99269.94
2022-10-24T08:37:14.448Z,99263.22
2022-10-24T08:39:59.758Z,99263.91
2022-10-24T08:42:46.397Z,99264.50
2022-10-24T08:49:57.893Z,99268.16
2022-10-24T08:53:01.597Z,99265.50
2022-10-24T08:55:59.084Z,99276.53
2022-10-24T08:58:45.975Z,99269.06
2022-10-24T09:01:59.261Z,99263.16
2022-10-24T09:05:18.153Z,99272.28
2022-10-24T09:08:43.337Z,99264.25
2022-10-24T09:11:54.493Z,99263.84
2022-10-24T09:14:45.465Z,99263.97
2022-10-24T09:17:37.092Z,99261.88
2022-10-24T09:20:32.985Z,99249.66
2022-10-24T09:23:20.119Z,99251.53
2022-10-24T09:26:12.620Z,99251.06
2022-10-24T09:29:04.154Z,99252.91
2022-10-24T09:31:51.405Z,99251.03
2022-10-24T09:34:36.632Z,99260.91
2022-10-24T09:37:44.040Z,99259.88
2022-10-24T09:41:14.722Z,99266.97
2022-10-24T09:44:01.363Z,99262.56
2022-10-24T09:46:48.789Z,99257.38
2022-10-24T09:49:37.000Z,99259.41
2022-10-24T09:52:26.729Z,99255.72
2022-10-24T09:55:25.805Z,99263.03
2022-10-24T09:58:20.938Z,99252.94
2022-10-24T10:01:13.858Z,99251.69
2022-10-24T10:04:10.013Z,99246.47
2022-10-24T10:06:55.251Z,99237.09
2022-10-24T10:09:55.745Z,99246.94
2022-10-24T10:12:44.383Z,99237.50
2022-10-24T10:15:53.595Z,99245.38
2022-10-24T10:18:40.824Z,99238.13
2022-10-24T10:21:25.679Z,99231.41
2022-10-24T10:24:42.711Z,99235.31
2022-10-24T10:27:40.168Z,99237.69
2022-10-24T10:30:26.998Z,99236.69
2022-10-24T10:33:23.462Z,99237.72
2022-10-24T10:36:21.001Z,99236.66
2022-10-24T10:39:31.751Z,99234.56
2022-10-24T10:42:40.638Z,99239.97
2022-10-24T10:45:35.153Z,99228.00
2022-10-24T10:49:06.331Z,99233.47
2022-10-24T10:51:58.137Z,99214.28
2022-10-24T10:54:58.312Z,99212.97
2022-10-24T10:57:49.370Z,99216.28
2022-10-24T11:00:59.083Z,99206.63
2022-10-24T11:04:08.739Z,99214.63
2022-10-24T11:07:16.008Z,99212.56
2022-10-24T11:10:15.162Z,99213.88
2022-10-24T11:13:06.967Z,99215.72
2022-10-24T11:15:55.230Z,99208.72
2022-10-24T11:18:44.385Z,99217.19
2022-10-24T11:21:33.069Z,99216.13
2022-10-24T11:24:22.332Z,99215.44
2022-10-24T11:27:13.859Z,99213.13
2022-10-24T11:30:06.661Z,99204.81
2022-10-24T11:33:01.194Z,99191.59
2022-10-24T11:36:03.206Z,99182.19
2022-10-24T11:39:11.169Z,99177.19
2022-10-24T11:42:12.080Z,99177.19
2022-10-24T11:45:15.937Z,99180.31
2022-10-24T11:48:20.843Z,99179.31
2022-10-24T11:51:20.342Z,99169.06
2022-10-24T11:54:15.251Z,99163.09
2022-10-24T11:57:09.812Z,99160.22
2022-10-24T11:59:57.020Z,99169.50
2022-10-24T12:03:11.275Z,99159.50
2022-10-24T12:06:28.896Z,99158.75
2022-10-24T12:10:00.771Z,99151.72
2022-10-24T12:13:03.972Z,99153.00
2022-10-24T12:16:03.831Z,99154.56
2022-10-24T12:18:56.186Z,99157.47
2022-10-24T12:22:01.028Z,99166.63
2022-10-24T12:24:46.199Z,99169.25
2022-10-24T12:27:35.217Z,99167.47
2022-10-24T12:30:23.676Z,99166.16
2022-10-24T12:33:25.248Z,99153.69
2022-10-24T12:36:10.620Z,99150.31
2022-10-24T12:38:55.590Z,99153.44
2022-10-24T12:41:41.250Z,99155.03
2022-10-24T12:44:32.188Z,99164.41
2022-10-24T12:47:31.967Z,99172.22
2022-10-24T12:50:20.401Z,99173.25
2022-10-24T12:53:18.435Z,99155.38
2022-10-24T12:56:14.134Z,99140.78
2022-10-24T12:59:29.286Z,99134.56
2022-10-24T13:02:15.369Z,99143.09
2022-10-24T13:05:33.797Z,99135.31
2022-10-24T13:08:48.640Z,99136.09
2022-10-24T13:12:01.296Z,99132.47
2022-10-24T13:15:09.932Z,99119.00
2022-10-24T13:18:28.326Z,99106.50
2022-10-24T13:21:16.150Z,99106.50
2022-10-24T13:24:21.740Z,99114.78
2022-10-24T13:27:10.439Z,99098.44
2022-10-24T13:30:02.576Z,99085.19
2022-10-24T13:32:48.080Z,99090.94
2022-10-24T13:35:33.174Z,99097.13
2022-10-24T13:38:18.935Z,99102.34
2022-10-24T13:41:04.787Z,99114.28
2022-10-24T13:43:52.834Z,99120.28
2022-10-24T13:46:53.276Z,99124.19
2022-10-24T13:50:04.520Z,99132.47
2022-10-24T13:53:16.356Z,99147.78
2022-10-24T13:56:09.983Z,99148.00
2022-10-24T13:58:55.185Z,99149.28
2022-10-24T14:04:31.786Z,99156.94
2022-10-24T14:07:21.184Z,99169.06
2022-10-24T14:10:14.137Z,99176.78
2022-10-24T14:12:59.728Z,99172.06
2022-10-24T14:16:01.315Z,99149.78
2022-10-24T14:18:46.370Z,99140.66
2022-10-24T14:21:39.936Z,99136.50
2022-10-24T14:24:25.315Z,99152.81
2022-10-24T14:27:12.746Z,99162.88
2022-10-24T14:30:04.466Z,99152.50
2022-10-24T14:33:03.404Z,99145.72
2022-10-24T14:35:52.323Z,99137.91
2022-10-24T14:38:41.248Z,99155.00
2022-10-24T14:41:38.914Z,99141.94
2022-10-24T14:44:24.195Z,99144.75
2022-10-24T14:47:24.723Z,99140.81
2022-10-24T14:50:35.990Z,99144.38
2022-10-24T14:53:26.756Z,99147.44
2022-10-24T14:56:25.523Z,99132.34
2022-10-24T14:59:27.531Z,99135.38
2022-10-24T15:02:25.754Z,99132.16
2022-10-24T15:05:23.995Z,99127.38
2022-10-24T15:08:27.031Z,99129.34
2022-10-24T15:11:24.386Z,99111.06
2022-10-24T15:14:37.294Z,99119.97
2022-10-24T15:17:32.956Z,99113.69
2022-10-24T15:20:21.784Z,99124.19
2022-10-24T15:23:17.431Z,99131.09
2022-10-24T15:26:11.964Z,99134.41
2022-10-24T15:29:03.231Z,99123.00
2022-10-24T15:31:51.029Z,99124.22
2022-10-24T15:34:36.079Z,99124.75
2022-10-24T15:37:23.994Z,99122.91
2022-10-24T15:40:20.057Z,99130.13
2022-10-24T15:43:04.656Z,99125.22
2022-10-24T15:45:51.036Z,99126.22
2022-10-24T15:48:38.769Z,99129.84
2022-10-24T15:51:24.381Z,99117.63
2022-10-24T15:54:14.257Z,99123.03
2022-10-24T15:57:02.850Z,99120.38
2022-10-24T15:59:50.182Z,99121.66
2022-10-24T16:02:35.431Z,99118.69
2022-10-24T16:05:28.794Z,99116.34
2022-10-24T16:08:18.218Z,99116.03
2022-10-24T16:11:06.240Z,99111.34
2022-10-24T16:13:54.489Z,99107.97
2022-10-24T16:16:39.603Z,99108.22
2022-10-24T16:19:26.070Z,99107.44
2022-10-24T16:22:11.293Z,99108.16
2022-10-24T16:24:55.968Z,99113.69
2022-10-24T16:27:41.145Z,99121.59
2022-10-24T16:30:29.143Z,99125.88
2022-10-24T16:33:16.793Z,99122.47
2022-10-24T16:36:01.638Z,99123.16
2022-10-24T16:38:46.551Z,99122.06
2022-10-24T16:41:31.564Z,99130.81
2022-10-24T16:44:17.054Z,99125.66
2022-10-24T16:47:05.699Z,99125.13
2022-10-24T16:49:56.385Z,99127.44
2022-10-24T16:52:42.197Z,99128.16
2022-10-24T16:55:28.777Z,99121.59
2022-10-24T16:58:14.117Z,99119.94
2022-10-24T17:01:04.817Z,99118.59
2022-10-24T17:03:50.187Z,99125.59
2022-10-24T17:06:35.151Z,99124.00
2022-10-24T17:09:20.196Z,99117.97
2022-10-24T17:12:06.568Z,99119.94
2022-10-24T17:14:52.222Z,99110.53
2022-10-24T17:17:39.737Z,99105.06
2022-10-24T17:20:25.142Z,99100.84
2022-10-24T17:23:19.121Z,99091.56
2022-10-24T17:26:04.549Z,99097.88
2022-10-24T17:28:50.447Z,99079.13
2022-10-24T17:31:36.240Z,99083.63
2022-10-24T17:34:22.797Z,99088.91
2022-10-24T17:37:15.651Z,99090.59
2022-10-24T17:40:30.301Z,99093.88
2022-10-24T17:43:26.897Z,99094.22
2022-10-24T17:46:13.118Z,99090.78
2022-10-24T17:48:58.676Z,99089.84
2022-10-24T17:51:46.992Z,99084.75
2022-10-24T17:54:32.604Z,99090.09
2022-10-24T17:57:17.562Z,99085.88
2022-10-24T18:00:03.179Z,99085.00
2022-10-24T18:02:56.185Z,99081.53
2022-10-24T18:05:41.162Z,99090.69
2022-10-24T18:08:26.189Z,99087.25
2022-10-24T18:11:12.314Z,99083.31
2022-10-24T18:13:57.093Z,99083.44
2022-10-24T18:16:42.271Z,99085.44
2022-10-24T18:19:27.089Z,99080.41
2022-10-24T18:22:12.512Z,99079.50
2022-10-24T18:24:57.368Z,99080.97
2022-10-24T18:27:42.378Z,99082.53
2022-10-24T18:30:27.100Z,99073.47
2022-10-24T18:33:13.530Z,99071.56
2022-10-24T18:36:04.851Z,99066.84
2022-10-24T18:38:50.400Z,99060.38
2022-10-24T18:42:03.245Z,99062.38
2022-10-24T18:44:51.121Z,99057.38
2022-10-24T18:47:36.439Z,99065.41
2022-10-24T18:50:23.811Z,99059.69
2022-10-24T18:53:35.674Z,99060.94
2022-10-24T18:56:20.823Z,99069.88
2022-10-24T18:59:18.460Z,99061.06
2022-10-24T19:02:18.755Z,99064.81
2022-10-24T19:05:16.712Z,99059.91
2022-10-24T19:08:01.690Z,99060.16
2022-10-24T19:10:46.587Z,99057.56
2022-10-24T19:13:31.419Z,99061.69
2022-10-24T19:16:28.654Z,99068.19
2022-10-24T19:19:24.893Z,99065.97
2022-10-24T19:22:09.523Z,99056.91
2022-10-24T19:24:55.040Z,99059.13
2022-10-24T19:27:40.358Z,99063.28
2022-10-24T19:30:25.543Z,99063.72
2022-10-24T19:33:12.297Z,99066.53
2022-10-24T19:35:57.176Z,99065.75
2022-10-24T19:38:42.274Z,99066.09
2022-10-24T19:41:27.397Z,99063.84
2022-10-24T19:44:13.926Z,99058.16
2022-10-24T19:46:58.728Z,99060.16
2022-10-24T19:49:44.118Z,99058.59
2022-10-24T19:52:28.847Z,99059.94
2022-10-24T19:55:14.226Z,99053.34
2022-10-24T19:57:59.300Z,99059.50
2022-10-24T20:00:44.239Z,99050.88
2022-10-24T20:03:29.367Z,99054.66
2022-10-24T20:06:15.286Z,99054.78
2022-10-24T20:09:00.644Z,99050.41
2022-10-24T20:11:45.300Z,99056.22
2022-10-24T20:14:30.222Z,99050.72
2022-10-24T20:17:15.344Z,99048.34
2022-10-24T20:20:00.324Z,99048.78
2022-10-24T20:22:45.790Z,99054.38
2022-10-24T20:25:30.799Z,99054.25
2022-10-24T20:28:16.193Z,99057.47
2022-10-24T20:31:01.408Z,99051.09
2022-10-24T20:33:46.277Z,99049.63
2022-10-24T20:36:31.480Z,99041.09
2022-10-24T20:39:20.207Z,99045.03
2022-10-24T20:42:05.138Z,99047.38
2022-10-24T20:44:49.950Z,99034.94
2022-10-24T20:47:36.082Z,99035.16
2022-10-24T20:50:21.424Z,99043.13
2022-10-24T20:53:06.084Z,99034.53
2022-10-24T20:55:51.023Z,99033.66
2022-10-24T20:58:37.897Z,99034.53
2022-10-24T21:01:28.175Z,99036.78
2022-10-24T21:04:15.745Z,99034.66
2022-10-24T21:07:03.195Z,99032.66
2022-10-24T21:09:47.981Z,99028.03
2022-10-24T21:12:33.076Z,99037.72
2022-10-24T21:15:18.100Z,99037.81
2022-10-24T21:18:04.311Z,99023.69
2022-10-24T21:20:49.164Z,99024.47
2022-10-24T21:23:34.235Z,99027.25
2022-10-24T21:26:20.222Z,99018.75
2022-10-24T21:29:31.275Z,99015.28
2022-10-24T21:32:10.584Z,99008.22
2022-10-24T21:34:55.652Z,99005.56
2022-10-24T21:37:40.627Z,99009.91
2022-10-24T21:40:25.633Z,99020.22
2022-10-24T21:43:10.822Z,99014.63
2022-10-24T21:46:06.138Z,99014.41
2022-10-24T21:48:52.454Z,99016.31
2022-10-24T21:51:38.716Z,99018.66
2022-10-24T21:54:25.131Z,99020.09
2022-10-24T21:57:10.024Z,99027.72
2022-10-24T21:59:55.512Z,99022.25
2022-10-24T22:02:40.584Z,99017.34
2022-10-24T22:05:26.154Z,99024.03
2022-10-24T22:08:11.361Z,99017.66
2022-10-24T22:11:00.736Z,99020.00
2022-10-24T22:13:46.440Z,99016.00
2022-10-24T22:16:32.621Z,99014.69
2022-10-24T22:19:17.842Z,99005.53
2022-10-24T22:22:02.731Z,99007.69
2022-10-24T22:24:47.799Z,99009.41
2022-10-24T22:27:32.687Z,99002.56
2022-10-24T22:30:17.677Z,99016.16
2022-10-24T22:33:03.008Z,99004.09
2022-10-24T22:35:57.476Z,99006.75
2022-10-24T22:38:42.296Z,98989.44
2022-10-24T22:41:27.784Z,99003.28
2022-10-24T22:44:14.842Z,98997.25
2022-10-24T22:47:05.698Z,99004.06
2022-10-24T22:49:53.879Z,99003.91
2022-10-24T22:52:39.068Z,98999.69
2022-10-24T22:55:59.429Z,99002.44
2022-10-24T22:58:45.454Z,99001.47
2022-10-24T23:01:36.218Z,99003.25
2022-10-24T23:04:30.655Z,98997.53
2022-10-24T23:07:47.197Z,98995.63
2022-10-24T23:10:33.105Z,98995.06
2022-10-24T23:13:18.113Z,98996.88
2022-10-24T23:16:27.171Z,98995.63
2022-10-24T23:19:19.997Z,98999.19
2022-10-24T23:22:30.274Z,98999.44
2022-10-24T23:25:15.393Z,98998.84
2022-10-24T23:28:12.691Z,98998.28
2022-10-24T23:30:57.907Z,98985.31
2022-10-24T23:33:43.118Z,98988.56
2022-10-24T23:36:30.127Z,98987.59
2022-10-24T23:39:15.515Z,98986.25
2022-10-24T23:42:01.932Z,98976.78
2022-10-24T23:44:47.427Z,98969.06
2022-10-24T23:48:04.761Z,98967.50
2022-10-24T23:51:11.327Z,98966.69
2022-10-24T23:53:56.655Z,98961.78
2022-10-24T23:56:41.786Z,98964.38
2022-10-24T23:59:27.170Z,98971.28
